createdAt,value
2022-09-12T00:00:41.702Z,0.6
2022-09-12T00:01:51.479Z,0.7
2022-09-12T00:03:01.062Z,0.6
2022-09-12T00:04:08.745Z,0.6
2022-09-12T00:05:18.391Z,0.5
2022-09-12T00:06:28.062Z,0.5
2022-09-12T00:07:36.749Z,0.5
2022-09-12T00:08:46.481Z,0.4
2022-09-12T00:09:55.080Z,0.5
2022-09-12T00:11:04.754Z,0.5
2022-09-12T00:12:13.466Z,0.5
2022-09-12T00:13:23.290Z,0.6
2022-09-12T00:14:32.952Z,0.5
2022-09-12T00:15:40.611Z,0.6
2022-09-12T00:16:49.347Z,0.4
2022-09-12T00:17:58.975Z,0.4
2022-09-12T00:19:07.693Z,0.4
2022-09-12T00:20:17.389Z,0.7
2022-09-12T00:21:26.028Z,0.4
2022-09-12T00:22:34.705Z,0.4
2022-09-12T00:23:44.374Z,0.5
2022-09-12T00:24:52.077Z,0.5
2022-09-12T00:26:01.752Z,0.3
2022-09-12T00:27:11.428Z,0.5
2022-09-12T00:28:20.094Z,0.4
2022-09-12T00:29:28.754Z,0.4
2022-09-12T00:30:36.431Z,0.6
2022-09-12T00:31:44.159Z,0.6
2022-09-12T00:32:53.768Z,0.4
2022-09-12T00:34:02.450Z,0.6
2022-09-12T00:35:12.125Z,0.5
2022-09-12T00:36:21.851Z,0.4
2022-09-12T00:37:31.511Z,0.6
2022-09-12T00:38:41.231Z,0.4
2022-09-12T00:39:49.906Z,0.5
2022-09-12T00:40:58.573Z,0.7
2022-09-12T00:42:08.290Z,0.5
2022-09-12T00:43:16.958Z,0.6
2022-09-12T00:44:25.631Z,0.6
2022-09-12T00:45:34.318Z,0.5
2022-09-12T00:46:41.979Z,0.6
2022-09-12T00:47:51.675Z,0.4
2022-09-12T00:49:01.382Z,0.4
2022-09-12T00:50:11.059Z,0.6
2022-09-12T00:51:19.745Z,0.4
2022-09-12T00:52:27.431Z,0.6
2022-09-12T00:53:37.098Z,0.7
2022-09-12T00:54:45.766Z,0.5
2022-09-12T00:55:54.510Z,0.5
2022-09-12T00:57:04.195Z,0.5
2022-09-12T00:58:11.867Z,0.5
2022-09-12T00:59:21.688Z,0.7
2022-09-12T01:00:30.358Z,0.6
2022-09-12T01:01:39.150Z,0.6
2022-09-12T01:02:48.705Z,0.7
2022-09-12T01:03:56.374Z,0.5
2022-09-12T01:05:05.093Z,0.6
2022-09-12T01:06:14.837Z,0.8
2022-09-12T01:07:22.509Z,0.4
2022-09-12T01:08:32.199Z,0.4
2022-09-12T01:09:41.881Z,0.7
2022-09-12T01:10:51.612Z,0.4
2022-09-12T01:12:01.284Z,0.5
2022-09-12T01:13:09.952Z,0.6
2022-09-12T01:14:18.629Z,0.6
2022-09-12T01:15:28.302Z,0.5
2022-09-12T01:16:37.094Z,0.5
2022-09-12T01:17:46.696Z,0.5
2022-09-12T01:18:56.395Z,0.4
2022-09-12T01:20:04.040Z,0.5
2022-09-12T01:21:13.708Z,0.4
2022-09-12T01:22:21.383Z,0.5
2022-09-12T01:23:31.103Z,0.4
2022-09-12T01:24:39.783Z,0.4
2022-09-12T01:25:48.422Z,0.5
2022-09-12T01:26:58.079Z,0.5
2022-09-12T01:28:07.760Z,0.5
2022-09-12T01:29:15.431Z,0.6
2022-09-12T01:30:25.111Z,0.5
2022-09-12T01:31:32.790Z,0.6
2022-09-12T01:32:41.452Z,0.4
2022-09-12T01:33:51.157Z,0.5
2022-09-12T01:34:59.816Z,0.5
2022-09-12T01:36:08.476Z,0.7
2022-09-12T01:37:18.157Z,0.8
2022-09-12T01:38:25.826Z,0.5
2022-09-12T01:39:35.523Z,0.6
2022-09-12T01:40:43.218Z,0.7
2022-09-12T01:41:51.879Z,0.7
2022-09-12T01:43:01.562Z,0.5
2022-09-12T01:44:10.240Z,0.6
2022-09-12T01:45:19.929Z,0.4
2022-09-12T01:46:28.604Z,0.8
2022-09-12T01:47:36.276Z,0.7
2022-09-12T01:48:46.005Z,0.5
2022-09-12T01:49:54.606Z,0.7
2022-09-12T01:51:03.302Z,0.9
2022-09-12T01:52:12.977Z,0.5
2022-09-12T01:53:20.645Z,0.6
2022-09-12T01:54:30.309Z,0.7
2022-09-12T01:55:38.956Z,0.6
2022-09-12T01:56:46.673Z,0.7
2022-09-12T01:57:56.357Z,0.5
2022-09-12T01:59:05.054Z,0.5
2022-09-12T02:00:13.741Z,0.7
2022-09-12T02:01:23.463Z,0.7
2022-09-12T02:02:32.249Z,0.6
2022-09-12T02:03:41.921Z,0.3
2022-09-12T02:04:50.586Z,0.4
2022-09-12T02:05:59.265Z,0.6
2022-09-12T02:07:08.931Z,0.4
2022-09-12T02:08:18.642Z,0.6
2022-09-12T02:09:28.312Z,0.4
2022-09-12T02:10:37.966Z,0.6
2022-09-12T02:11:47.671Z,0.7
2022-09-12T02:12:57.405Z,0.7
2022-09-12T02:14:07.107Z,0.5
2022-09-12T02:15:15.786Z,0.7
2022-09-12T02:16:25.475Z,0.8
2022-09-12T02:17:34.121Z,0.5
2022-09-12T02:18:41.819Z,0.6
2022-09-12T02:19:51.617Z,0.8
2022-09-12T02:21:00.290Z,0.6
2022-09-12T02:22:09.962Z,0.6
2022-09-12T02:23:19.630Z,0.6
2022-09-12T02:24:29.295Z,0.4
2022-09-12T02:25:38.979Z,0.5
2022-09-12T02:26:47.647Z,0.6
2022-09-12T02:27:57.362Z,0.7
2022-09-12T02:29:07.056Z,0.5
2022-09-12T02:30:14.689Z,0.3
2022-09-12T02:31:24.370Z,0.3
2022-09-12T02:32:33.024Z,0.6
2022-09-12T02:33:40.688Z,0.6
2022-09-12T02:34:50.416Z,0.5
2022-09-12T02:35:58.036Z,0.4
2022-09-12T02:37:06.719Z,0.4
2022-09-12T02:38:16.399Z,0.5
2022-09-12T02:39:25.062Z,0.6
2022-09-12T02:40:34.734Z,0.4
2022-09-12T02:41:43.399Z,0.5
2022-09-12T02:42:51.084Z,0.7
2022-09-12T02:44:00.753Z,0.6
2022-09-12T02:45:08.438Z,0.3
2022-09-12T02:46:17.067Z,0.5
2022-09-12T02:47:26.725Z,0.5
2022-09-12T02:48:36.459Z,0.5
2022-09-12T02:49:46.123Z,0.3
2022-09-12T02:50:54.787Z,0.4
2022-09-12T02:52:04.454Z,0.4
2022-09-12T02:53:13.145Z,0.7
2022-09-12T02:54:20.819Z,0.5
2022-09-12T02:55:30.495Z,0.6
2022-09-12T02:56:40.190Z,0.5
2022-09-12T02:57:49.938Z,0.5
2022-09-12T02:58:59.628Z,0.5
2022-09-12T03:00:08.304Z,0.5
2022-09-12T03:01:18.003Z,0.4
2022-09-12T03:02:26.694Z,0.5
2022-09-12T03:03:38.247Z,0.6
2022-09-12T03:04:46.973Z,0.6
2022-09-12T03:05:56.674Z,0.5
2022-09-12T03:07:06.364Z,0.5
2022-09-12T03:08:16.018Z,0.7
2022-09-12T03:09:24.687Z,0.6
2022-09-12T03:10:34.359Z,0.6
2022-09-12T03:11:43.032Z,0.6
2022-09-12T03:12:51.702Z,0.6
2022-09-12T03:14:01.397Z,0.5
2022-09-12T03:15:09.075Z,0.6
2022-09-12T03:16:18.802Z,0.4
2022-09-12T03:17:28.477Z,0.6
2022-09-12T03:18:37.128Z,0.5
2022-09-12T03:19:45.804Z,0.6
2022-09-12T03:20:54.537Z,0.5
2022-09-12T03:22:03.254Z,0.6
2022-09-12T03:23:13.024Z,0.5
2022-09-12T03:24:21.721Z,0.6
2022-09-12T03:25:31.404Z,0.5
2022-09-12T03:26:41.060Z,0.5
2022-09-12T03:27:48.734Z,0.5
2022-09-12T03:28:58.419Z,1.1
2022-09-12T03:30:07.075Z,0.7
2022-09-12T03:31:14.750Z,0.7
2022-09-12T03:32:24.436Z,0.6
2022-09-12T03:33:32.128Z,0.6
2022-09-12T03:34:40.801Z,0.4
2022-09-12T03:35:50.481Z,0.8
2022-09-12T03:36:58.200Z,0.6
2022-09-12T03:38:08.837Z,0.8
2022-09-12T03:39:17.518Z,0.6
2022-09-12T03:40:26.218Z,0.7
2022-09-12T03:41:35.886Z,0.7
2022-09-12T03:42:43.556Z,0.7
2022-09-12T03:43:52.256Z,0.8
2022-09-12T03:45:01.903Z,0.8
2022-09-12T03:46:09.660Z,0.6
2022-09-12T03:47:19.269Z,0.7
2022-09-12T03:48:27.951Z,0.6
2022-09-12T03:49:36.651Z,0.6
2022-09-12T03:50:46.310Z,0.8
2022-09-12T03:51:54.018Z,0.7
2022-09-12T03:53:03.698Z,0.8
2022-09-12T03:54:13.376Z,0.6
2022-09-12T03:55:22.039Z,0.8
2022-09-12T03:56:32.778Z,0.6
2022-09-12T03:57:42.477Z,0.7
2022-09-12T03:58:50.142Z,0.6
2022-09-12T03:59:59.828Z,0.6
2022-09-12T04:01:08.533Z,0.8
2022-09-12T04:02:17.220Z,0.6
2022-09-12T04:03:26.853Z,0.8
2022-09-12T04:04:35.545Z,0.7
2022-09-12T04:05:45.236Z,0.8
2022-09-12T04:06:54.920Z,0.9
2022-09-12T04:08:03.568Z,0.7
2022-09-12T04:09:13.273Z,1
2022-09-12T04:10:21.968Z,0.7
2022-09-12T04:11:30.649Z,0.8
2022-09-12T04:12:40.363Z,1.1
2022-09-12T04:13:48.021Z,0.7
2022-09-12T04:14:57.751Z,0.7
2022-09-12T04:16:07.419Z,1
2022-09-12T04:17:15.102Z,1.3
2022-09-12T04:18:24.792Z,1.9
2022-09-12T04:19:33.462Z,1.2
2022-09-12T04:20:43.183Z,1.3
2022-09-12T04:21:52.884Z,1.1
2022-09-12T04:23:01.583Z,0.9
2022-09-12T04:24:11.311Z,1.1
2022-09-12T04:25:20.992Z,0.9
2022-09-12T04:26:29.708Z,0.8
2022-09-12T04:27:39.385Z,0.9
2022-09-12T04:28:48.151Z,0.9
2022-09-12T04:29:56.777Z,1
2022-09-12T04:31:06.472Z,0.7
2022-09-12T04:32:14.168Z,1
2022-09-12T04:33:23.896Z,0.7
2022-09-12T04:34:32.580Z,0.9
2022-09-12T04:35:41.244Z,0.8
2022-09-12T04:36:50.922Z,0.7
2022-09-12T04:37:58.676Z,0.8
2022-09-12T04:39:07.314Z,0.9
2022-09-12T04:40:17.068Z,0.8
2022-09-12T04:41:25.637Z,1
2022-09-12T04:42:34.333Z,0.8
2022-09-12T04:43:44.019Z,0.7
2022-09-12T04:44:51.723Z,0.8
2022-09-12T04:46:00.449Z,0.7
2022-09-12T04:47:09.137Z,0.6
2022-09-12T04:48:18.880Z,0.8
2022-09-12T04:49:28.628Z,0.6
2022-09-12T04:50:37.316Z,1
2022-09-12T04:51:46.992Z,0.6
2022-09-12T04:52:54.674Z,1
2022-09-12T04:54:03.656Z,0.7
2022-09-12T04:55:17.187Z,0.6
2022-09-12T04:56:30.822Z,0.6
2022-09-12T04:57:40.542Z,0.6
2022-09-12T04:58:48.326Z,0.8
2022-09-12T04:59:56.898Z,0.8
2022-09-12T05:01:06.764Z,0.8
2022-09-12T05:02:14.425Z,0.9
2022-09-12T05:03:24.094Z,0.6
2022-09-12T05:04:32.758Z,0.5
2022-09-12T05:05:40.418Z,0.5
2022-09-12T05:06:49.126Z,0.5
2022-09-12T05:07:56.806Z,0.7
2022-09-12T05:09:06.507Z,0.7
2022-09-12T05:10:16.182Z,0.7
2022-09-12T05:11:33.105Z,0.8
2022-09-12T05:12:36.570Z,0.8
2022-09-12T05:13:45.251Z,0.8
2022-09-12T05:14:53.916Z,1.1
2022-09-12T05:16:03.608Z,0.6
2022-09-12T05:17:11.307Z,0.9
2022-09-12T05:18:20.022Z,0.7
2022-09-12T05:19:29.710Z,0.6
2022-09-12T05:20:37.405Z,0.6
2022-09-12T05:21:47.161Z,0.7
2022-09-12T05:22:55.829Z,0.8
2022-09-12T05:24:04.524Z,0.6
2022-09-12T05:25:14.229Z,0.8
2022-09-12T05:26:21.863Z,0.7
2022-09-12T05:27:31.548Z,0.9
2022-09-12T05:28:41.210Z,0.8
2022-09-12T05:29:51.018Z,0.9
2022-09-12T05:31:00.784Z,0.8
2022-09-12T05:32:09.400Z,1
2022-09-12T05:33:17.082Z,0.9
2022-09-12T05:34:26.790Z,0.9
2022-09-12T05:35:34.493Z,0.6
2022-09-12T05:36:43.164Z,0.7
2022-09-12T05:37:52.835Z,0.7
2022-09-12T05:39:01.510Z,0.6
2022-09-12T05:40:11.194Z,0.7
2022-09-12T05:41:24.314Z,0.8
2022-09-12T05:42:30.549Z,0.7
2022-09-12T05:43:40.183Z,0.6
2022-09-12T05:44:48.894Z,0.5
2022-09-12T05:45:57.618Z,0.7
2022-09-12T05:47:07.306Z,0.7
2022-09-12T05:48:17.018Z,0.7
2022-09-12T05:49:26.712Z,0.7
2022-09-12T05:50:36.410Z,0.6
2022-09-12T05:51:45.103Z,0.6
2022-09-12T05:52:54.785Z,0.7
2022-09-12T05:54:02.448Z,0.5
2022-09-12T05:55:11.129Z,0.7
2022-09-12T05:56:20.798Z,0.6
2022-09-12T05:57:28.494Z,0.6
2022-09-12T05:58:38.174Z,0.5
2022-09-12T05:59:47.849Z,0.5
2022-09-12T06:01:02.623Z,0.7
2022-09-12T06:02:12.329Z,0.7
2022-09-12T06:03:21.967Z,0.6
2022-09-12T06:04:29.785Z,0.7
2022-09-12T06:05:39.471Z,0.4
2022-09-12T06:06:48.127Z,0.8
2022-09-12T06:07:56.817Z,0.6
2022-09-12T06:09:06.499Z,0.6
2022-09-12T06:10:14.248Z,0.6
2022-09-12T06:11:23.963Z,0.5
2022-09-12T06:12:33.653Z,0.4
2022-09-12T06:13:42.348Z,0.5
2022-09-12T06:14:52.037Z,0.9
2022-09-12T06:16:02.018Z,0.8
2022-09-12T06:17:10.679Z,0.9
2022-09-12T06:18:20.362Z,1.1
2022-09-12T06:19:29.069Z,1.3
2022-09-12T06:20:37.765Z,0.8
2022-09-12T06:21:47.453Z,1.2
2022-09-12T06:22:55.135Z,0.9
2022-09-12T06:24:03.843Z,0.8
2022-09-12T06:25:13.516Z,0.5
2022-09-12T06:26:22.319Z,0.5
2022-09-12T06:27:32.021Z,0.8
2022-09-12T06:28:41.792Z,0.4
2022-09-12T06:29:50.423Z,0.5
2022-09-12T06:31:00.157Z,0.6
2022-09-12T06:32:07.762Z,0.6
2022-09-12T06:33:17.628Z,0.6
2022-09-12T06:34:27.317Z,0.5
2022-09-12T06:35:36.007Z,0.5
2022-09-12T06:36:45.696Z,0.6
2022-09-12T06:37:53.377Z,0.6
2022-09-12T06:39:02.065Z,0.7
2022-09-12T06:40:11.883Z,0.7
2022-09-12T06:41:19.457Z,0.5
2022-09-12T06:42:29.181Z,0.9
2022-09-12T06:43:37.881Z,0.8
2022-09-12T06:44:47.617Z,0.4
2022-09-12T06:45:56.305Z,0.7
2022-09-12T06:47:03.993Z,0.5
2022-09-12T06:48:13.683Z,0.4
2022-09-12T06:49:22.370Z,0.7
2022-09-12T06:50:31.075Z,0.5
2022-09-12T06:51:40.757Z,0.7
2022-09-12T06:52:49.445Z,0.8
2022-09-12T06:53:59.154Z,0.8
2022-09-12T06:55:08.835Z,0.6
2022-09-12T06:56:17.556Z,0.8
2022-09-12T06:57:27.292Z,0.8
2022-09-12T06:58:35.037Z,0.7
2022-09-12T06:59:44.654Z,0.5
2022-09-12T07:00:58.556Z,0.4
2022-09-12T07:02:04.063Z,0.7
2022-09-12T07:03:13.682Z,0.6
2022-09-12T07:04:22.351Z,0.6
2022-09-12T07:05:32.046Z,0.8
2022-09-12T07:06:41.732Z,0.3
2022-09-12T07:07:50.565Z,0.8
2022-09-12T07:09:00.283Z,0.1
2022-09-12T07:10:08.961Z,0.4
2022-09-12T07:11:18.692Z,0.4
2022-09-12T07:12:28.446Z,0.5
2022-09-12T07:13:38.133Z,0.4
2022-09-12T07:14:46.824Z,0.2
2022-09-12T07:15:56.499Z,0.3
2022-09-12T07:17:04.238Z,0.3
2022-09-12T07:18:13.862Z,0.3
2022-09-12T07:19:23.701Z,0.3
2022-09-12T07:20:32.382Z,0.2
2022-09-12T07:21:42.077Z,0.3
2022-09-12T07:22:50.753Z,0.7
2022-09-12T07:23:59.454Z,0.1
2022-09-12T07:25:09.164Z,0.2
2022-09-12T07:26:17.838Z,0.4
2022-09-12T07:27:27.509Z,0.1
2022-09-12T07:28:37.180Z,0.3
2022-09-12T07:29:44.867Z,0.3
2022-09-12T07:30:54.657Z,0.1
2022-09-12T07:32:03.306Z,0.1
2022-09-12T07:33:12.055Z,0.1
2022-09-12T07:34:21.707Z,0.3
2022-09-12T07:35:31.427Z,0.1
2022-09-12T07:36:41.376Z,0.2
2022-09-12T07:37:51.079Z,0.1
2022-09-12T07:39:00.739Z,0.2
2022-09-12T07:40:10.478Z,0.2
2022-09-12T07:41:19.081Z,0.2
2022-09-12T07:42:26.775Z,0.2
2022-09-12T07:43:36.459Z,0.3
2022-09-12T07:44:45.161Z,0.3
2022-09-12T07:45:54.832Z,0.2
2022-09-12T07:47:04.772Z,0.2
2022-09-12T07:48:13.190Z,0.1
2022-09-12T07:49:22.993Z,0.1
2022-09-12T07:50:32.624Z,0.2
2022-09-12T07:51:41.302Z,0.3
2022-09-12T07:52:50.976Z,0.1
2022-09-12T07:53:59.706Z,0
2022-09-12T07:55:09.384Z,0
2022-09-12T07:56:19.110Z,0.2
2022-09-12T07:57:26.787Z,0.2
2022-09-12T07:58:36.491Z,0.2
2022-09-12T07:59:52.742Z,0
2022-09-12T08:00:55.820Z,0.1
2022-09-12T08:02:05.538Z,0.2
2022-09-12T08:03:14.170Z,0.1
2022-09-12T08:04:22.842Z,0.1
2022-09-12T08:05:32.588Z,0.2
2022-09-12T08:06:41.247Z,0.2
2022-09-12T08:07:53.629Z,0.2
2022-09-12T08:09:00.580Z,0
2022-09-12T08:10:09.273Z,0
2022-09-12T08:11:18.974Z,0
2022-09-12T08:12:27.648Z,0.2
2022-09-12T08:13:36.366Z,0.1
2022-09-12T08:14:46.002Z,0
2022-09-12T08:15:54.726Z,0.1
2022-09-12T08:17:03.389Z,0.3
2022-09-12T08:18:12.045Z,0.2
2022-09-12T08:19:20.721Z,0.2
2022-09-12T08:20:30.372Z,0.1
2022-09-12T08:21:40.110Z,0
2022-09-12T08:22:48.898Z,0.2
2022-09-12T08:23:57.588Z,0
2022-09-12T08:25:06.258Z,0.2
2022-09-12T08:26:15.926Z,0.1
2022-09-12T08:27:24.590Z,0.3
2022-09-12T08:28:32.285Z,0.3
2022-09-12T08:29:41.974Z,0.1
2022-09-12T08:30:49.670Z,0.1
2022-09-12T08:31:58.302Z,0.1
2022-09-12T08:33:07.975Z,0.1
2022-09-12T08:34:16.678Z,0.1
2022-09-12T08:35:26.383Z,0.2
2022-09-12T08:36:35.053Z,0.1
2022-09-12T08:37:42.741Z,0.2
2022-09-12T08:38:54.416Z,0.1
2022-09-12T08:40:02.252Z,0.2
2022-09-12T08:41:12.890Z,0.2
2022-09-12T08:42:22.571Z,0.1
2022-09-12T08:43:31.254Z,0.2
2022-09-12T08:44:40.908Z,0.2
2022-09-12T08:45:48.626Z,0.1
2022-09-12T08:46:58.259Z,0.2
2022-09-12T08:48:06.932Z,0.1
2022-09-12T08:49:14.596Z,0.1
2022-09-12T08:50:24.285Z,0.2
2022-09-12T08:51:32.004Z,0.1
2022-09-12T08:52:40.719Z,0.1
2022-09-12T08:53:50.404Z,0.1
2022-09-12T08:54:59.050Z,0.2
2022-09-12T08:56:08.774Z,0.1
2022-09-12T08:57:17.465Z,0.1
2022-09-12T08:58:26.143Z,0
2022-09-12T08:59:35.839Z,0.1
2022-09-12T09:00:44.535Z,0.1
2022-09-12T09:01:53.238Z,0.1
2022-09-12T09:03:02.955Z,0.2
2022-09-12T09:04:12.633Z,0.2
2022-09-12T09:05:22.309Z,0.2
2022-09-12T09:06:31.981Z,0.2
2022-09-12T09:07:40.649Z,0.2
2022-09-12T09:08:48.361Z,0.1
2022-09-12T09:09:57.078Z,0.1
2022-09-12T09:11:05.773Z,0.2
2022-09-12T09:12:15.472Z,0
2022-09-12T09:13:24.178Z,0.3
2022-09-12T09:14:33.873Z,0.1
2022-09-12T09:15:42.570Z,0.2
2022-09-12T09:16:52.253Z,0.3
2022-09-12T09:18:01.934Z,0.2
2022-09-12T09:19:09.633Z,0.3
2022-09-12T09:20:18.459Z,0.4
2022-09-12T09:21:27.096Z,0.2
2022-09-12T09:22:36.138Z,0.1
2022-09-12T09:23:45.493Z,0.1
2022-09-12T09:24:54.135Z,0.1
2022-09-12T09:26:01.875Z,0.1
2022-09-12T09:27:30.173Z,0.2
2022-09-12T09:28:22.179Z,0.1
2022-09-12T09:29:30.877Z,0.1
2022-09-12T09:30:40.574Z,0.1
2022-09-12T09:31:48.247Z,0.2
2022-09-12T09:32:57.937Z,0.2
2022-09-12T09:34:07.612Z,0
2022-09-12T09:35:15.287Z,0.1
2022-09-12T09:36:24.983Z,0.1
2022-09-12T09:37:34.673Z,0.2
2022-09-12T09:38:43.356Z,0
2022-09-12T09:39:53.217Z,0.3
2022-09-12T09:41:01.751Z,0
2022-09-12T09:42:11.480Z,0.2
2022-09-12T09:43:21.392Z,0.2
2022-09-12T09:44:30.072Z,0.1
2022-09-12T09:45:41.575Z,0.2
2022-09-12T09:46:49.418Z,0.1
2022-09-12T09:47:58.105Z,0.2
2022-09-12T09:49:08.361Z,0.2
2022-09-12T09:50:17.159Z,0.1
2022-09-12T09:51:26.729Z,0.3
2022-09-12T09:52:35.394Z,0.2
2022-09-12T09:53:44.103Z,0.1
2022-09-12T09:54:53.810Z,0.1
2022-09-12T09:56:02.514Z,0.1
2022-09-12T09:57:12.228Z,0.1
2022-09-12T09:58:21.953Z,0.2
2022-09-12T09:59:30.614Z,0.2
2022-09-12T10:00:40.330Z,0.2
2022-09-12T10:01:49.066Z,0.1
2022-09-12T10:02:57.810Z,0.1
2022-09-12T10:04:07.430Z,0
2022-09-12T10:05:16.118Z,0.1
2022-09-12T10:06:24.824Z,0.1
2022-09-12T10:07:34.508Z,0.1
2022-09-12T10:08:44.196Z,0.2
2022-09-12T10:09:53.884Z,0.1
2022-09-12T10:11:02.550Z,0
2022-09-12T10:12:11.257Z,0.2
2022-09-12T10:13:20.950Z,0.1
2022-09-12T10:14:28.669Z,0.2
2022-09-12T10:15:37.389Z,0.1
2022-09-12T10:16:47.016Z,0.1
2022-09-12T10:17:55.727Z,0.1
2022-09-12T10:19:05.420Z,0.1
2022-09-12T10:20:21.331Z,0.1
2022-09-12T10:21:24.729Z,0.1
2022-09-12T10:22:34.375Z,0.1
2022-09-12T10:23:42.227Z,0
2022-09-12T10:24:51.886Z,0.1
2022-09-12T10:26:01.574Z,0.1
2022-09-12T10:27:09.264Z,0.2
2022-09-12T10:28:19.209Z,0.1
2022-09-12T10:29:27.959Z,0.2
2022-09-12T10:30:34.647Z,0.1
2022-09-12T10:31:44.308Z,0
2022-09-12T10:32:52.977Z,0.1
2022-09-12T10:34:03.632Z,0.1
2022-09-12T10:35:13.320Z,0.2
2022-09-12T10:36:21.005Z,0
2022-09-12T10:37:30.745Z,0.3
2022-09-12T10:38:39.402Z,0.2
2022-09-12T10:39:49.193Z,0.1
2022-09-12T10:40:58.842Z,0.2
2022-09-12T10:42:06.496Z,0.2
2022-09-12T10:43:16.195Z,0.1
2022-09-12T10:44:24.849Z,0.1
2022-09-12T10:45:33.586Z,0
2022-09-12T10:46:43.445Z,0.1
2022-09-12T10:47:53.135Z,0.2
2022-09-12T10:49:02.832Z,0.2
2022-09-12T10:50:20.883Z,0.1
2022-09-12T10:51:21.183Z,0.2
2022-09-12T10:52:30.896Z,0.2
2022-09-12T10:53:40.555Z,0.1
2022-09-12T10:54:50.251Z,0.2
2022-09-12T10:55:59.933Z,0.1
2022-09-12T10:57:07.628Z,0.1
2022-09-12T10:58:17.346Z,0.1
2022-09-12T10:59:27.031Z,0.2
2022-09-12T11:00:36.704Z,0.1
2022-09-12T11:01:46.455Z,0.1
2022-09-12T11:02:54.081Z,0.2
2022-09-12T11:04:03.774Z,0.2
2022-09-12T11:05:13.469Z,0.2
2022-09-12T11:06:21.181Z,0.1
2022-09-12T11:07:30.839Z,0.2
2022-09-12T11:08:40.515Z,0.2
2022-09-12T11:09:49.216Z,0.1
2022-09-12T11:10:58.893Z,0.2
2022-09-12T11:12:08.560Z,0.1
2022-09-12T11:13:17.291Z,0.2
2022-09-12T11:14:26.956Z,0.1
2022-09-12T11:15:35.673Z,0.2
2022-09-12T11:16:45.300Z,0
2022-09-12T11:17:53.993Z,0.1
2022-09-12T11:19:01.647Z,0.1
2022-09-12T11:20:10.350Z,0.1
2022-09-12T11:21:20.049Z,0.1
2022-09-12T11:22:31.838Z,0.1
2022-09-12T11:23:39.448Z,0.2
2022-09-12T11:24:47.195Z,0.2
2022-09-12T11:25:56.865Z,0.3
2022-09-12T11:27:06.614Z,0.2
2022-09-12T11:28:15.325Z,0.2
2022-09-12T11:29:25.009Z,0.1
2022-09-12T11:30:33.748Z,0.1
2022-09-12T11:31:43.382Z,0.1
2022-09-12T11:32:53.107Z,0.3
2022-09-12T11:34:00.784Z,0.2
2022-09-12T11:35:13.959Z,0.2
2022-09-12T11:36:19.191Z,0.2
2022-09-12T11:37:27.864Z,0.2
2022-09-12T11:38:37.550Z,0.1
2022-09-12T11:39:45.276Z,0.2
2022-09-12T11:40:55.025Z,0.1
2022-09-12T11:42:04.713Z,0.2
2022-09-12T11:43:14.418Z,0.1
2022-09-12T11:44:24.121Z,0.1
2022-09-12T11:45:33.782Z,0.1
2022-09-12T11:46:41.454Z,0.3
2022-09-12T11:47:51.146Z,0.1
2022-09-12T11:48:59.814Z,0.2
2022-09-12T11:50:08.644Z,0.4
2022-09-12T11:51:18.294Z,0.1
2022-09-12T11:52:25.958Z,0.1
2022-09-12T11:53:35.674Z,0.1
2022-09-12T11:54:44.296Z,0.1
2022-09-12T11:55:52.990Z,0.2
2022-09-12T11:57:02.658Z,0.2
2022-09-12T11:58:11.332Z,0.2
2022-09-12T11:59:18.992Z,0.3
2022-09-12T12:00:28.685Z,0.1
2022-09-12T12:01:41.387Z,0.1
2022-09-12T12:02:48.061Z,0.2
2022-09-12T12:03:57.748Z,0
2022-09-12T12:05:06.389Z,0.1
2022-09-12T12:06:15.096Z,0.2
2022-09-12T12:07:22.750Z,0.1
2022-09-12T12:08:31.423Z,0.2
2022-09-12T12:09:41.106Z,0.1
2022-09-12T12:10:48.773Z,0.3
2022-09-12T12:11:58.471Z,0.1
2022-09-12T12:13:09.658Z,0.1
2022-09-12T12:14:15.838Z,0.1
2022-09-12T12:15:25.514Z,0.1
2022-09-12T12:16:34.215Z,0.1
2022-09-12T12:17:44.880Z,0.2
2022-09-12T12:18:54.587Z,0.2
2022-09-12T12:20:07.619Z,0.1
2022-09-12T12:21:14.926Z,0.2
2022-09-12T12:22:23.614Z,0.1
2022-09-12T12:23:31.252Z,0.1
2022-09-12T12:24:40.966Z,0.1
2022-09-12T12:25:49.635Z,0.1
2022-09-12T12:26:58.310Z,0.1
2022-09-12T12:28:07.992Z,0.2
2022-09-12T12:29:16.650Z,0.1
2022-09-12T12:30:26.369Z,0
2022-09-12T12:31:35.184Z,0.1
2022-09-12T12:32:44.832Z,0.2
2022-09-12T12:33:54.503Z,0.1
2022-09-12T12:35:02.185Z,0
2022-09-12T12:36:11.908Z,0.1
2022-09-12T12:37:20.761Z,0.3
2022-09-12T12:38:29.457Z,0.1
2022-09-12T12:39:39.138Z,0.2
2022-09-12T12:40:46.784Z,0.2
2022-09-12T12:41:56.491Z,0.2
2022-09-12T12:43:05.213Z,0.2
2022-09-12T12:44:13.901Z,0.1
2022-09-12T12:45:23.609Z,0.1
2022-09-12T12:46:32.449Z,0.1
2022-09-12T12:47:41.056Z,0.1
2022-09-12T12:48:50.713Z,0.1
2022-09-12T12:49:58.386Z,0.1
2022-09-12T12:51:07.063Z,0.1
2022-09-12T12:52:15.733Z,0.1
2022-09-12T12:53:25.585Z,0.1
2022-09-12T12:54:35.290Z,0.1
2022-09-12T12:55:42.936Z,0.2
2022-09-12T12:56:51.611Z,0.3
2022-09-12T12:58:01.281Z,0.1
2022-09-12T12:59:09.995Z,0.1
2022-09-12T13:00:19.675Z,0.1
2022-09-12T13:01:28.429Z,0.3
2022-09-12T13:02:38.164Z,0.1
2022-09-12T13:03:47.922Z,0.1
2022-09-12T13:04:56.503Z,0.2
2022-09-12T13:06:06.206Z,0.3
2022-09-12T13:07:15.863Z,0
2022-09-12T13:08:24.572Z,0
2022-09-12T13:09:34.266Z,0
2022-09-12T13:10:44.718Z,0.1
2022-09-12T13:11:51.113Z,0.2
2022-09-12T13:13:00.802Z,0.1
2022-09-12T13:14:10.565Z,0.2
2022-09-12T13:15:20.257Z,0.1
2022-09-12T13:16:29.961Z,0.2
2022-09-12T13:17:38.643Z,0.1
2022-09-12T13:18:48.439Z,0.1
2022-09-12T13:20:17.142Z,0.1
2022-09-12T13:21:07.623Z,0.2
2022-09-12T13:22:18.382Z,0.1
2022-09-12T13:23:26.051Z,0
2022-09-12T13:24:35.755Z,0.1
2022-09-12T13:25:45.454Z,0.1
2022-09-12T13:26:53.109Z,0.1
2022-09-12T13:28:01.802Z,0.1
2022-09-12T13:29:10.457Z,0
2022-09-12T13:30:19.128Z,0.2
2022-09-12T13:31:28.854Z,0.1
2022-09-12T13:32:36.490Z,0.1
2022-09-12T13:33:45.189Z,0.2
2022-09-12T13:34:54.906Z,0.2
2022-09-12T13:36:03.600Z,0.2
2022-09-12T13:37:13.290Z,0.1
2022-09-12T13:38:21.975Z,0.1
2022-09-12T13:39:29.796Z,0.1
2022-09-12T13:40:39.490Z,0.1
2022-09-12T13:41:47.184Z,0.2
2022-09-12T13:42:56.836Z,0.1
2022-09-12T13:44:06.532Z,0.2
2022-09-12T13:45:15.222Z,0.1
2022-09-12T13:46:24.936Z,0.1
2022-09-12T13:47:33.563Z,0
2022-09-12T13:48:42.283Z,0.1
2022-09-12T13:49:51.909Z,0.2
2022-09-12T13:51:01.614Z,0.1
2022-09-12T13:52:10.307Z,0.1
2022-09-12T13:53:19.995Z,0.1
2022-09-12T13:54:28.667Z,0.2
2022-09-12T13:55:38.359Z,0.2
2022-09-12T13:56:47.170Z,0.2
2022-09-12T13:57:55.841Z,0.1
2022-09-12T13:59:05.506Z,0.1
2022-09-12T14:00:14.196Z,0.1
2022-09-12T14:01:22.962Z,0.2
2022-09-12T14:02:32.615Z,0.1
2022-09-12T14:03:40.372Z,0.1
2022-09-12T14:04:50.319Z,0.1
2022-09-12T14:06:00.159Z,0.1
2022-09-12T14:07:09.853Z,0.1
2022-09-12T14:08:19.619Z,0
2022-09-12T14:09:29.294Z,0.3
2022-09-12T14:10:38.971Z,0.2
2022-09-12T14:11:48.658Z,0
2022-09-12T14:12:58.347Z,0.1
2022-09-12T14:14:08.026Z,0.2
2022-09-12T14:15:17.718Z,0.1
2022-09-12T14:16:26.389Z,0.1
2022-09-12T14:17:36.112Z,0.1
2022-09-12T14:18:44.795Z,0.2
2022-09-12T14:19:54.575Z,0.1
2022-09-12T14:21:04.255Z,0.2
2022-09-12T14:22:12.923Z,0.1
2022-09-12T14:23:22.596Z,0.1
2022-09-12T14:24:31.258Z,0.3
2022-09-12T14:25:38.949Z,0
2022-09-12T14:26:48.669Z,0.2
2022-09-12T14:27:56.354Z,0.2
2022-09-12T14:29:05.119Z,0.1
2022-09-12T14:30:14.776Z,0.1
2022-09-12T14:31:22.477Z,0.3
2022-09-12T14:32:32.155Z,0.1
2022-09-12T14:33:41.851Z,0.3
2022-09-12T14:34:51.520Z,0.1
2022-09-12T14:36:01.196Z,0.1
2022-09-12T14:37:10.896Z,0.2
2022-09-12T14:38:20.572Z,0.1
2022-09-12T14:39:28.278Z,0.1
2022-09-12T14:40:37.939Z,0.2
2022-09-12T14:41:47.610Z,0.1
2022-09-12T14:42:59.259Z,0.2
2022-09-12T14:44:06.149Z,0.3
2022-09-12T14:45:15.848Z,0.2
2022-09-12T14:46:23.515Z,0.4
2022-09-12T14:47:33.336Z,0.2
2022-09-12T14:48:40.828Z,0.1
2022-09-12T14:49:48.491Z,0.1
2022-09-12T14:50:58.191Z,0.4
2022-09-12T14:52:07.872Z,0.3
2022-09-12T14:53:17.573Z,0.1
2022-09-12T14:54:26.286Z,0.3
2022-09-12T14:55:34.018Z,0.1
2022-09-12T14:56:43.691Z,0.2
2022-09-12T14:57:52.362Z,0.2
2022-09-12T14:59:01.049Z,0.1
2022-09-12T15:00:10.730Z,0.2
2022-09-12T15:01:20.513Z,0.4
2022-09-12T15:02:30.078Z,0.2
2022-09-12T15:03:39.760Z,0.2
2022-09-12T15:04:52.669Z,0.2
2022-09-12T15:06:02.386Z,0.2
2022-09-12T15:07:11.063Z,0.1
2022-09-12T15:08:19.777Z,0.2
2022-09-12T15:09:29.451Z,0.1
2022-09-12T15:10:39.149Z,0.2
2022-09-12T15:11:48.850Z,0.1
2022-09-12T15:12:58.530Z,0.2
2022-09-12T15:14:06.210Z,0.2
2022-09-12T15:15:15.898Z,0.2
2022-09-12T15:16:24.664Z,0.1
2022-09-12T15:17:33.292Z,0.1
2022-09-12T15:18:42.974Z,0.2
2022-09-12T15:19:51.672Z,0.1
2022-09-12T15:21:01.361Z,0.2
2022-09-12T15:22:11.047Z,0.2
2022-09-12T15:23:20.764Z,0.2
2022-09-12T15:24:30.494Z,0.2
2022-09-12T15:25:40.216Z,0.2
2022-09-12T15:26:49.893Z,0.2
2022-09-12T15:27:59.571Z,0.1
2022-09-12T15:29:08.286Z,0.2
2022-09-12T15:30:17.961Z,0.2
2022-09-12T15:31:27.776Z,0.3
2022-09-12T15:32:36.322Z,0.1
2022-09-12T15:33:45.105Z,0.2
2022-09-12T15:34:52.732Z,0.2
2022-09-12T15:36:02.418Z,0.2
2022-09-12T15:37:12.177Z,0.4
2022-09-12T15:38:25.733Z,0.2
2022-09-12T15:39:32.637Z,0.2
2022-09-12T15:40:41.374Z,0.1
2022-09-12T15:41:49.034Z,0.2
2022-09-12T15:42:58.710Z,0.3
2022-09-12T15:44:07.400Z,0.2
2022-09-12T15:45:16.064Z,0.2
2022-09-12T15:46:24.891Z,0.2
2022-09-12T15:47:33.777Z,0.1
2022-09-12T15:48:43.258Z,0.2
2022-09-12T15:49:51.996Z,0.2
2022-09-12T15:51:00.699Z,0.2
2022-09-12T15:52:10.402Z,0.1
2022-09-12T15:53:18.162Z,0.2
2022-09-12T15:54:26.847Z,0.3